Heute – Wetterdaten der letzten 3 Stunden im 5 Min. Intervall

Wetterdaten der letzten 3 Stunden im 5 Min. Intervall
Datum Aussentemperatur Luftdruck Luftfeuchtigkeit Windstärke Regen
20.05.18, 19:10 24.1 °C 1017.9 hPa 46 % 1.8 km/h 0.0 mm
20.05.18, 19:05 24.5 °C 1017.9 hPa 46 % 3.2 km/h 0.0 mm
20.05.18, 18:55 24.3 °C 1017.9 hPa 45 % 1.8 km/h 0.0 mm
20.05.18, 18:50 24.6 °C 1017.9 hPa 44 % 5.0 km/h 0.0 mm
20.05.18, 18:45 24.2 °C 1018.1 hPa 46 % 5.0 km/h 0.0 mm
20.05.18, 18:40 23.3 °C 1018.1 hPa 53 % 0.0 km/h 0.0 mm
20.05.18, 18:35 22.7 °C 1018.2 hPa 58 % 0.0 km/h 0.0 mm
20.05.18, 18:30 22.2 °C 1018.2 hPa 59 % 0.0 km/h 0.0 mm
20.05.18, 18:25 22.1 °C 1018.3 hPa 61 % 1.8 km/h 0.0 mm
20.05.18, 18:20 22.8 °C 1018.5 hPa 58 % 1.8 km/h 0.0 mm
20.05.18, 18:15 23.2 °C 1018.5 hPa 50 % 3.2 km/h 0.0 mm
20.05.18, 18:10 23.2 °C 1018.4 hPa 51 % 0.0 km/h 0.0 mm
20.05.18, 18:05 23.1 °C 1018.4 hPa 50 % 1.8 km/h 0.0 mm
20.05.18, 17:55 22.3 °C 1018.4 hPa 56 % 0.0 km/h 0.0 mm
20.05.18, 17:50 22.6 °C 1018.5 hPa 59 % 1.8 km/h 0.0 mm
20.05.18, 17:45 23.2 °C 1018.3 hPa 51 % 3.2 km/h 0.0 mm
20.05.18, 17:40 23.3 °C 1018.5 hPa 54 % 0.0 km/h 0.0 mm
20.05.18, 17:35 23.1 °C 1018.6 hPa 56 % 0.0 km/h 0.0 mm
20.05.18, 17:30 22.3 °C 1018.7 hPa 58 % 0.0 km/h 0.0 mm
20.05.18, 17:25 21.5 °C 1018.7 hPa 62 % 0.0 km/h 0.0 mm
20.05.18, 17:20 21.1 °C 1018.8 hPa 62 % 0.0 km/h 0.0 mm
20.05.18, 17:15 21.1 °C 1018.9 hPa 62 % 0.0 km/h 0.0 mm
20.05.18, 17:10 21.2 °C 1018.9 hPa 60 % 1.8 km/h 0.0 mm
20.05.18, 17:05 21.8 °C 1019.0 hPa 61 % 0.0 km/h 0.0 mm
20.05.18, 16:55 23.7 °C 1019.4 hPa 54 % 3.2 km/h 0.0 mm
20.05.18, 16:50 24.8 °C 1019.2 hPa 48 % 5.0 km/h 0.0 mm
20.05.18, 16:45 24.8 °C 1019.1 hPa 46 % 0.0 km/h 0.0 mm
20.05.18, 16:40 24.7 °C 1019.2 hPa 47 % 0.0 km/h 0.0 mm
20.05.18, 16:35 24.7 °C 1019.5 hPa 46 % 1.8 km/h 0.0 mm
20.05.18, 16:30 25.3 °C 1019.4 hPa 44 % 1.8 km/h 0.0 mm
20.05.18, 16:25 25.9 °C 1019.4 hPa 44 % 1.8 km/h 0.0 mm
20.05.18, 16:20 26.2 °C 1019.3 hPa 42 % 3.2 km/h 0.0 mm
20.05.18, 16:15 25.8 °C 1019.5 hPa 43 % 0.0 km/h 0.0 mm